Time;durP1;ratioP1;P1;durP2;ratioP2;P2;SDS_P1;SDS_P2;PMS_P1;PMS_P2;Temp;Humidity;BMP_temperature;BMP_pressure;BME280_temperature;BME280_humidity;BME280_pressure;Samples;Min_cycle;Max_cycle;Signal;HPM_P1;HPM_P2
2021/11/12 00:03:25;;;;;;;83.00;41.40;;;;;;;2.07;79.40;100516.64;226479;1198;139945;-68
2021/11/12 00:13:48;;;;;;;71.00;35.50;;;;;;;1.99;79.07;100505.90;227033;1199;141175;-67
2021/11/12 00:18:50;;;;;;;69.10;39.80;;;;;;;2.06;79.42;100500.50;226378;1199;140846;-67
2021/11/12 00:23:54;;;;;;;75.70;42.70;;;;;;;2.13;79.86;100492.35;226136;1199;140818;-67
2021/11/12 00:29:00;;;;;;;84.20;40.80;;;;;;;2.30;80.55;100492.78;226524;1199;140500;-67
2021/11/12 00:39:36;;;;;;;84.00;44.10;;;;;;;2.76;81.14;100497.00;227207;1199;142206;-67
2021/11/12 00:50:07;;;;;;;72.50;40.90;;;;;;;3.11;81.24;100492.05;227620;1199;140430;-67
2021/11/12 00:55:11;;;;;;;79.60;42.90;;;;;;;3.27;81.29;100493.52;228619;1198;141296;-67
2021/11/12 01:00:15;;;;;;;81.50;42.90;;;;;;;3.37;81.28;100494.41;226534;1198;139203;-67
2021/11/12 01:05:18;;;;;;;83.60;45.90;;;;;;;3.52;81.28;100500.46;227915;1198;140270;-67
2021/11/12 01:10:21;;;;;;;84.30;47.80;;;;;;;3.61;81.12;100496.71;229157;1199;141162;-68
2021/11/12 01:15:25;;;;;;;88.70;44.10;;;;;;;3.69;81.38;100499.54;229160;1199;140885;-67
2021/11/12 01:20:28;;;;;;;81.90;45.30;;;;;;;3.82;81.05;100494.77;229142;1199;142070;-70
2021/11/12 01:25:34;;;;;;;84.30;42.60;;;;;;;3.85;81.03;100490.63;228859;1199;139646;-68
2021/11/12 01:30:41;;;;;;;84.60;43.90;;;;;;;3.88;80.98;100494.21;227649;1199;140235;-68
2021/11/12 01:41:50;;;;;;;91.40;46.20;;;;;;;4.02;81.02;100488.52;227964;1199;141740;-67
2021/11/12 01:47:11;;;;;;;83.90;44.00;;;;;;;4.05;81.25;100489.95;227791;1199;139208;-68
2021/11/12 01:52:51;;;;;;;78.80;36.20;;;;;;;4.05;80.86;100495.76;226154;1198;140279;-67
2021/11/12 02:03:27;;;;;;;74.60;40.10;;;;;;;4.04;81.12;100501.48;226800;1200;139757;-68
2021/11/12 02:08:38;;;;;;;72.40;36.70;;;;;;;4.01;81.01;100495.48;226367;1200;140189;-68
2021/11/12 02:13:43;;;;;;;73.30;37.00;;;;;;;4.05;80.77;100491.20;226652;1199;140125;-68
2021/11/12 02:18:47;;;;;;;63.70;36.30;;;;;;;4.08;81.16;100487.01;227028;1199;139636;-67
2021/11/12 02:29:01;;;;;;;60.30;34.00;;;;;;;4.08;81.01;100488.71;226721;1198;139998;-67
2021/11/12 02:34:09;;;;;;;45.20;25.30;;;;;;;4.07;81.22;100487.95;227262;1199;139725;-67
2021/11/12 02:39:14;;;;;;;61.20;33.30;;;;;;;4.03;81.26;100491.02;227130;1199;139749;-67
2021/11/12 02:44:19;;;;;;;54.60;27.50;;;;;;;4.07;81.19;100493.73;226718;1199;140535;-67
2021/11/12 02:49:23;;;;;;;54.00;28.30;;;;;;;4.17;81.41;100493.32;226986;1199;142824;-67
2021/11/12 02:54:28;;;;;;;53.00;28.90;;;;;;;4.21;81.31;100483.40;226718;1200;159963;-67
2021/11/12 02:59:34;;;;;;;51.70;26.60;;;;;;;4.20;81.41;100486.38;227039;1198;139727;-68
2021/11/12 03:04:40;;;;;;;45.50;27.20;;;;;;;4.25;81.16;100487.63;229082;1199;139935;-68
2021/11/12 03:09:46;;;;;;;50.80;26.70;;;;;;;4.29;81.34;100492.09;229245;1199;139992;-67
2021/11/12 03:15:20;;;;;;;47.60;27.00;;;;;;;4.27;81.40;100493.05;229111;1199;141186;-70
2021/11/12 03:20:24;;;;;;;49.70;24.20;;;;;;;4.25;80.76;100496.61;228978;1199;139085;-67
2021/11/12 03:30:59;;;;;;;46.80;23.50;;;;;;;4.33;81.02;100502.17;226750;1200;139999;-67
2021/11/12 03:49:26;;;;;;;41.10;23.90;;;;;;;4.33;81.14;100506.55;227731;1199;140336;-68
2021/11/12 04:03:32;;;;;;;44.60;25.60;;;;;;;4.37;81.32;100506.14;226552;1199;142174;-67
2021/11/12 04:21:07;;;;;;;42.10;24.10;;;;;;;4.55;81.58;100511.43;227482;1199;140869;-67
2021/11/12 05:13:38;;;;;;;54.60;27.20;;;;;;;4.78;81.67;100531.23;228994;1199;139817;-68
2021/11/12 05:45:22;;;;;;;43.00;24.50;;;;;;;4.91;81.02;100556.37;226987;1199;140494;-68
2021/11/12 05:50:52;;;;;;;;;;;;;;;;;;;;;
2021/11/12 05:55:56;;;;;;;49.90;26.50;;;;;;;4.75;81.15;100554.19;227231;1198;140721;-68
2021/11/12 06:00:59;;;;;;;56.20;25.10;;;;;;;4.77;81.36;100560.55;226576;1199;139666;-67
2021/11/12 06:06:03;;;;;;;43.00;19.50;;;;;;;4.78;81.65;100567.41;226501;1199;140103;-68
2021/11/12 06:11:06;;;;;;;52.50;25.20;;;;;;;4.82;81.57;100562.73;226057;1199;140761;-69
2021/11/12 06:16:12;;;;;;;46.70;25.50;;;;;;;4.84;81.54;100563.08;226501;1198;140064;-67
2021/11/12 06:21:16;;;;;;;46.50;24.10;;;;;;;4.77;81.29;100561.60;226145;1198;140791;-68
2021/11/12 06:26:19;;;;;;;44.60;22.50;;;;;;;4.79;81.66;100562.39;226366;1198;139552;-67
2021/11/12 06:31:23;;;;;;;43.40;23.00;;;;;;;4.86;81.64;100569.05;227161;1199;140086;-68
2021/11/12 06:36:28;;;;;;;47.80;25.50;;;;;;;4.89;82.06;100575.42;226431;1198;139776;-67
2021/11/12 06:52:34;;;;;;;42.60;22.70;;;;;;;4.98;81.88;100574.90;227569;1199;138979;-67
2021/11/12 06:58:00;;;;;;;41.70;20.80;;;;;;;5.02;81.85;100575.40;226811;1193;139459;-66
2021/11/12 07:03:07;;;;;;;42.60;24.10;;;;;;;5.09;81.97;100577.60;227150;1198;142056;-67
2021/11/12 07:08:16;;;;;;;43.20;23.00;;;;;;;5.11;81.89;100575.46;227917;1199;140478;-67
2021/11/12 07:13:24;;;;;;;45.50;23.70;;;;;;;5.12;81.78;100576.88;228932;1198;140875;-67
2021/11/12 07:18:36;;;;;;;43.90;24.00;;;;;;;5.16;81.58;100586.00;229136;1199;139986;-67
2021/11/12 07:23:39;;;;;;;49.70;25.40;;;;;;;5.20;81.82;100584.73;229083;1198;140381;-68
2021/11/12 07:28:43;;;;;;;47.00;21.60;;;;;;;5.23;81.53;100591.39;229039;1199;141093;-68
2021/11/12 07:34:07;;;;;;;49.40;27.00;;;;;;;5.31;81.51;100587.86;228511;1198;140712;-68
2021/11/12 07:39:38;;;;;;;63.40;33.10;;;;;;;5.31;81.34;100591.39;228805;1198;139716;-71
2021/11/12 07:49:55;;;;;;;;;;;;;;;5.13;80.28;100594.25;226472;1199;140738;-70
2021/11/12 07:54:59;;;;;;;47.90;27.00;;;;;;;5.02;80.89;100593.86;228415;1198;127246;-71
2021/11/12 08:00:22;;;;;;;56.80;29.80;;;;;;;5.03;81.22;100590.09;227995;1198;139836;-70
2021/11/12 08:05:40;;;;;;;56.20;27.80;;;;;;;5.00;81.07;100594.40;226143;1200;139472;-69
2021/11/12 08:11:35;;;;;;;51.00;30.80;;;;;;;5.00;80.65;100601.80;226983;1198;142459;-69
2021/11/12 08:16:32;;;;;;;53.30;29.20;;;;;;;5.05;81.50;100606.77;226105;1199;140160;-70
2021/11/12 08:38:55;;;;;;;52.90;30.80;;;;;;;5.11;81.16;100605.92;226719;1199;141779;-69
2021/11/12 08:44:27;;;;;;;50.90;28.60;;;;;;;5.09;80.88;100606.30;227360;1199;140441;-69
2021/11/12 08:49:35;;;;;;;57.10;28.00;;;;;;;5.05;80.94;100605.80;226660;1198;142508;-69
2021/11/12 08:54:42;;;;;;;43.40;25.60;;;;;;;5.14;80.86;100608.95;227534;1198;141380;-67
2021/11/12 09:00:35;;;;;;;51.70;28.20;;;;;;;5.01;80.56;100608.56;226955;1199;140802;-67
2021/11/12 09:05:39;;;;;;;47.60;22.00;;;;;;;5.05;81.07;100604.08;226652;1199;139828;-69
2021/11/12 09:10:54;;;;;;;51.70;26.80;;;;;;;5.18;81.11;100604.70;228985;1198;140194;-70
2021/11/12 09:16:06;;;;;;;45.60;25.50;;;;;;;5.25;81.18;100600.20;229048;1198;139632;-69
2021/11/12 09:21:11;;;;;;;45.30;23.30;;;;;;;5.31;81.05;100601.58;228950;1198;139479;-68
2021/11/12 09:26:14;;;;;;;42.30;23.70;;;;;;;5.42;80.80;100601.23;228661;1198;140184;-68
2021/11/12 09:31:18;;;;;;;37.70;22.30;;;;;;;5.52;81.05;100599.12;229009;1198;140795;-68
2021/11/12 09:36:21;;;;;;;37.00;23.30;;;;;;;5.60;80.89;100599.23;229104;1198;140249;-68
2021/11/12 09:41:24;;;;;;;37.40;21.30;;;;;;;5.70;80.57;100591.17;228930;1198;141444;-69
2021/11/12 09:46:29;;;;;;;41.30;22.10;;;;;;;5.84;80.44;100590.02;225988;1199;140740;-68
2021/11/12 09:51:33;;;;;;;39.30;23.90;;;;;;;5.90;80.44;100590.01;226432;1199;230377;-68
2021/11/12 09:56:37;;;;;;;38.20;23.30;;;;;;;5.90;80.31;100589.69;227632;1200;140577;-67
2021/11/12 10:01:43;;;;;;;36.70;19.40;;;;;;;5.93;80.60;100585.20;227189;1198;245493;-68
2021/11/12 10:06:47;;;;;;;47.00;26.50;;;;;;;6.01;80.02;100582.91;226292;1198;142727;-68
2021/11/12 10:12:06;;;;;;;53.80;26.60;;;;;;;5.96;80.68;100582.04;227529;1198;140541;-69
2021/11/12 10:17:34;;;;;;;45.00;26.10;;;;;;;5.94;80.66;100576.84;226737;1198;140920;-68
2021/11/12 10:22:43;;;;;;;40.90;21.20;;;;;;;5.93;80.49;100575.15;226415;1198;143278;-69
2021/11/12 10:27:52;;;;;;;37.30;21.50;;;;;;;5.98;80.58;100573.15;226524;1198;142373;-67
2021/11/12 10:33:06;;;;;;;40.20;21.10;;;;;;;5.98;80.40;100562.52;226514;1198;140658;-69
2021/11/12 10:38:26;;;;;;;37.00;21.90;;;;;;;6.01;80.54;100555.64;227609;1198;140428;-68
2021/11/12 10:43:58;;;;;;;33.20;20.20;;;;;;;6.12;80.22;100545.40;228161;1199;140809;-69
2021/11/12 10:49:55;;;;;;;29.40;18.50;;;;;;;6.18;80.53;100542.10;227297;1199;140075;-68
2021/11/12 10:55:42;;;;;;;;;;;;;;;;;;;;;
2021/11/12 11:00:48;;;;;;;30.90;17.60;;;;;;;6.24;80.08;100541.30;227509;1199;139550;-68
2021/11/12 11:06:22;;;;;;;33.30;20.00;;;;;;;6.30;80.54;100536.42;227435;1198;144529;-67
2021/11/12 11:12:21;;;;;;;34.30;20.00;;;;;;;6.35;80.53;100537.55;226510;1198;140538;-68
2021/11/12 11:17:26;;;;;;;33.60;16.70;;;;;;;6.41;80.40;100529.89;227101;1198;163211;-68
2021/11/12 11:22:42;;;;;;;32.70;21.00;;;;;;;6.45;80.25;100519.98;228972;1198;140547;-68
2021/11/12 11:27:46;;;;;;;36.80;20.00;;;;;;;6.43;80.18;100511.89;229084;1198;139643;-69
2021/11/12 11:32:51;;;;;;;35.70;20.50;;;;;;;6.46;80.19;100506.09;228934;1198;140083;-69
2021/11/12 11:37:58;;;;;;;33.00;18.40;;;;;;;6.53;80.22;100501.72;229134;1198;141238;-68
2021/11/12 11:43:05;;;;;;;29.70;19.10;;;;;;;6.64;79.96;100495.92;227825;1198;152030;-68
2021/11/12 11:48:10;;;;;;;35.00;20.90;;;;;;;6.71;79.89;100497.49;227965;1198;139489;-68
2021/11/12 11:53:30;;;;;;;37.20;19.60;;;;;;;6.77;80.50;100497.36;226835;1198;140141;-69
2021/11/12 11:59:04;;;;;;;;;;;;;;;;;;;;;
2021/11/12 12:04:10;;;;;;;35.60;20.20;;;;;;;6.77;79.58;100489.98;227480;1198;139829;-68
2021/11/12 12:09:25;;;;;;;33.60;20.20;;;;;;;6.69;79.75;100483.58;226357;1200;140156;-67
2021/11/12 12:14:36;;;;;;;26.50;17.10;;;;;;;6.69;80.01;100478.85;227639;1198;139439;-68
2021/11/12 12:19:47;;;;;;;28.60;17.80;;;;;;;6.68;79.59;100469.35;226062;1198;140673;-68
2021/11/12 12:31:31;;;;;;;27.70;17.00;;;;;;;6.67;80.11;100473.98;227323;1198;140436;-69
2021/11/12 12:37:13;;;;;;;25.30;13.80;;;;;;;6.70;80.54;100463.59;226779;1198;141453;-69
2021/11/12 13:26:06;;;;;;;41.10;22.20;;;;;;;6.71;80.49;100430.69;229007;1199;140311;-72
2021/11/12 13:31:18;;;;;;;39.00;22.30;;;;;;;6.75;80.42;100425.32;229047;1198;140453;-69
2021/11/12 13:36:48;;;;;;;45.00;23.40;;;;;;;6.76;80.10;100422.39;229124;1198;139977;-69
2021/11/12 13:42:01;;;;;;;41.30;22.00;;;;;;;6.74;80.17;100416.34;229050;1199;140061;-69
2021/11/12 13:47:12;;;;;;;48.60;25.00;;;;;;;6.77;80.52;100410.61;229027;1198;140159;-68
2021/11/12 13:52:32;;;;;;;49.50;24.80;;;;;;;6.74;79.82;100411.50;227260;1198;140792;-69
2021/11/12 13:57:45;;;;;;;50.30;26.30;;;;;;;6.75;80.57;100417.25;227913;1198;140790;-68
2021/11/12 14:03:43;;;;;;;49.60;26.30;;;;;;;6.76;80.37;100414.36;226699;1198;140677;-67
2021/11/12 14:08:50;;;;;;;60.10;28.10;;;;;;;6.77;80.56;100414.89;227794;1198;142105;-69
2021/11/12 14:14:01;;;;;;;51.70;29.80;;;;;;;6.82;80.71;100412.16;226298;1198;140549;-68
2021/11/12 14:24:37;;;;;;;51.30;24.80;;;;;;;6.67;80.57;100413.38;226692;1198;139325;-69
2021/11/12 14:41:14;;;;;;;48.10;27.10;;;;;;;6.65;81.10;100406.76;226667;1199;236352;-67
2021/11/12 14:46:52;;;;;;;;;;;;;;;;;;;;;
2021/11/12 14:57:30;;;;;;;58.80;28.40;;;;;;;6.54;80.93;100412.41;226154;1199;140582;-68
2021/11/12 15:02:54;;;;;;;53.40;25.00;;;;;;;6.52;81.19;100407.95;227157;1200;139674;-68
2021/11/12 15:08:19;;;;;;;60.70;27.80;;;;;;;6.54;80.98;100412.65;226464;1199;141000;-68
2021/11/12 15:13:45;;;;;;;60.80;30.90;;;;;;;6.48;81.01;100415.36;226005;1199;141835;-68
2021/11/12 15:18:58;;;;;;;59.30;30.90;;;;;;;6.42;81.25;100423.64;227436;1199;140681;-70
2021/11/12 15:30:04;;;;;;;68.90;35.50;;;;;;;6.44;81.11;100415.34;228047;1198;142321;-70
2021/11/12 15:35:12;;;;;;;68.20;32.50;;;;;;;6.40;81.57;100416.21;226979;1198;141057;-70
2021/11/12 15:40:39;;;;;;;57.10;31.80;;;;;;;6.42;81.22;100415.98;227774;1199;139959;-69
2021/11/12 15:46:09;;;;;;;79.20;40.30;;;;;;;6.46;81.26;100419.22;227806;1198;140957;-69
2021/11/12 15:51:32;;;;;;;59.80;31.10;;;;;;;6.45;81.32;100422.52;227507;1191;139390;-72
2021/11/12 15:57:00;;;;;;;64.40;26.70;;;;;;;6.41;81.01;100431.05;227074;1198;139379;-70
2021/11/12 16:08:03;;;;;;;80.90;35.80;;;;;;;6.47;81.74;100426.98;228270;1202;140475;-69
2021/11/12 16:13:14;;;;;;;62.90;33.20;;;;;;;6.42;81.22;100426.66;226768;1198;140812;-68
2021/11/12 16:34:47;;;;;;;53.90;25.50;;;;;;;6.39;81.33;100432.63;226734;1199;230729;-69
2021/11/12 16:40:05;;;;;;;74.90;39.60;;;;;;;6.43;81.84;100437.00;226316;1199;140430;-69
2021/11/12 17:18:09;;;;;;;53.40;25.80;;;;;;;6.43;81.54;100436.64;227722;1199;141131;-68
2021/11/12 18:06:30;;;;;;;62.50;27.00;;;;;;;6.58;81.83;100408.09;227725;1198;140987;-67
2021/11/12 21:48:19;;;;;;;17.90;8.70;;;;;;;5.45;82.45;100284.10;228874;1198;140198;-70
2021/11/12 21:53:22;;;;;;;20.00;11.40;;;;;;;5.42;82.35;100284.77;228930;1198;139779;-70
2021/11/12 21:58:37;;;;;;;27.50;11.50;;;;;;;5.47;82.07;100283.43;229067;1199;141998;-70
2021/11/12 22:03:40;;;;;;;22.80;14.60;;;;;;;5.42;82.41;100276.46;228771;1200;140660;-70
2021/11/12 22:09:08;;;;;;;19.80;11.40;;;;;;;5.46;82.67;100277.31;227099;1184;140504;-69
2021/11/12 22:14:15;;;;;;;27.90;12.50;;;;;;;5.45;82.56;100267.99;227387;1199;142053;-69
2021/11/12 22:20:05;;;;;;;26.50;15.00;;;;;;;5.48;82.51;100265.70;226991;1198;140250;-68
2021/11/12 22:25:10;;;;;;;19.00;10.70;;;;;;;5.47;82.47;100267.94;227096;1199;153531;-69
2021/11/12 22:30:16;;;;;;;26.40;14.90;;;;;;;5.42;82.21;100264.54;226554;1199;140473;-68
2021/11/12 22:35:23;;;;;;;28.40;13.90;;;;;;;5.40;82.69;100253.05;226761;1200;140304;-69
2021/11/12 22:40:31;;;;;;;24.70;13.00;;;;;;;5.41;82.75;100254.00;228082;1199;140476;-69
2021/11/12 22:45:53;;;;;;;31.70;13.00;;;;;;;5.36;82.68;100253.54;226724;1198;140141;-69
2021/11/12 22:51:01;;;;;;;17.20;9.80;;;;;;;5.37;82.56;100248.95;226341;1198;140471;-70
2021/11/12 22:56:34;;;;;;;;;;;;;;;;;;;;;
2021/11/12 23:01:38;;;;;;;20.50;10.00;;;;;;;5.29;82.82;100232.76;226433;1199;139900;-69
2021/11/12 23:06:47;;;;;;;24.30;10.90;;;;;;;5.26;82.73;100227.72;225907;1200;139755;-69
2021/11/12 23:11:51;;;;;;;32.10;14.60;;;;;;;5.25;82.38;100222.26;228030;1199;142185;-69
2021/11/12 23:17:22;;;;;;;24.60;12.90;;;;;;;5.21;82.79;100225.02;226418;1198;141584;-69
2021/11/12 23:22:32;;;;;;;32.10;14.70;;;;;;;5.17;82.64;100215.77;226245;1199;140448;-69
2021/11/12 23:27:40;;;;;;;37.90;17.70;;;;;;;5.16;82.73;100201.33;227264;1199;140564;-69
2021/11/12 23:33:01;;;;;;;19.80;9.80;;;;;;;5.08;82.78;100197.80;226961;1199;140216;-69
2021/11/12 23:38:21;;;;;;;;;;;;;;;;;;;;;
2021/11/12 23:43:24;;;;;;;28.10;16.60;;;;;;;5.07;82.92;100193.39;227186;1198;142117;-69
2021/11/12 23:48:46;;;;;;;;;;;;;;;;;;;;;
2021/11/12 23:53:50;;;;;;;36.70;17.40;;;;;;;5.03;82.89;100187.17;229172;1198;140576;-69
2021/11/12 23:58:53;;;;;;;32.90;13.80;;;;;;;5.05;82.75;100183.23;228918;1198;140547;-69
